Dolna Banya Airport


Codes: LBDB/
Name: Dolna Banya Airport
City: Dolna Banya
Country: Bulgaria
Elevation: 1779 ft.

Photos at Dolna Banya Airport


   Photos courtesy of SpottingLog. You can add your own sightings and photos by signing up for a free trial today.



No photos found.

Weather at Dolna Banya Airport


Time (UTC)DescriptionTempratureWindCloud coverageVisibilityPressureHumidity
18-Apr-2024 00:00Light Rain7°C7 mph, NW100%7782m1002hPa87%
18-Apr-2024 03:00Light Rain7°C7 mph, NW97%5401m1003hPa92%
18-Apr-2024 06:00Light Rain6°C9 mph, NW98%2701m1005hPa97%
18-Apr-2024 09:00Light Rain7°C7 mph, NW100%7172m1006hPa87%
18-Apr-2024 12:00Light Rain11°C9 mph, NW99%10000m1005hPa69%
18-Apr-2024 15:00Light Rain10°C9 mph, NW100%10000m1007hPa66%
18-Apr-2024 18:00Overcast Clouds6°C7 mph, W100%10000m1012hPa81%
18-Apr-2024 21:00Few Clouds4°C7 mph, SW23%10000m1014hPa83%
19-Apr-2024 00:00Few Clouds3°C7 mph, SW13%10000m1015hPa81%
19-Apr-2024 03:00Scattered Clouds2°C4 mph, SW25%10000m1016hPa84%
19-Apr-2024 06:00Broken Clouds7°C2 mph, N51%10000m1015hPa75%
19-Apr-2024 09:00Light Rain9°C4 mph, NE100%8652m1014hPa76%
19-Apr-2024 12:00Light Rain9°C2 mph, E100%6181m1013hPa79%
19-Apr-2024 15:00Light Rain8°C4 mph, E98%5295m1012hPa87%
19-Apr-2024 18:00Light Rain7°C4 mph, E99%5960m1013hPa95%
19-Apr-2024 21:00Light Rain7°C2 mph, SE100%4521m1012hPa97%
20-Apr-2024 00:00Light Rain6°C4 mph, E100%1286m1011hPa100%
20-Apr-2024 03:00Light Rain5°C2 mph, SE100%1551m1011hPa97%
20-Apr-2024 06:00Overcast Clouds7°C4 mph, SE96%10000m1011hPa88%
20-Apr-2024 09:00Broken Clouds10°C4 mph, NE83%10000m1010hPa80%
20-Apr-2024 12:00Light Rain12°C4 mph, NE59%10000m1008hPa67%
20-Apr-2024 15:00Light Rain10°C0 mph, E91%9011m1009hPa81%
20-Apr-2024 18:00Light Rain9°C2 mph, S95%5446m1011hPa88%
20-Apr-2024 21:00Broken Clouds7°C7 mph, S72%10000m1011hPa94%
21-Apr-2024 00:00Light Rain6°C0 mph, SW65%7001m1012hPa95%
21-Apr-2024 03:00Moderate Rain6°C2 mph, S100%1226m1011hPa98%
21-Apr-2024 06:00Moderate Rain7°C4 mph, E100%6784m1011hPa97%
21-Apr-2024 09:00Light Rain9°C7 mph, SE100%4588m1010hPa96%
21-Apr-2024 12:00Light Rain9°C4 mph, E100%1362m1009hPa99%
21-Apr-2024 15:00Moderate Rain8°C2 mph, NW100%3911m1009hPa98%
21-Apr-2024 18:00Moderate Rain7°C4 mph, NW90%6716m1011hPa98%
21-Apr-2024 21:00Moderate Rain7°C2 mph, SW98%6362m1011hPa97%
22-Apr-2024 00:00Light Rain6°C4 mph, SW100%10000m1011hPa91%
22-Apr-2024 03:00Few Clouds4°C7 mph, SW16%10000m1013hPa88%
22-Apr-2024 06:00Clear Sky9°C2 mph, NW9%10000m1012hPa80%
22-Apr-2024 09:00Light Rain14°C2 mph, NW3%10000m1013hPa63%
22-Apr-2024 12:00Scattered Clouds15°C0 mph, SW32%10000m1014hPa56%
22-Apr-2024 15:00Broken Clouds15°C0 mph, SW72%10000m1014hPa62%
22-Apr-2024 18:00Overcast Clouds8°C4 mph, SW87%10000m1019hPa80%
22-Apr-2024 21:00Overcast Clouds9°C4 mph, SW100%10000m1019hPa82%